Mac Dill Air Force Base
KMCF : now visible

Airfield :











YOU CAN JOIN US ON...

 
LOGIN :

Register | Disclaimer

   EN    FR    IT 

 









Legend :    VFR   Marginal VFR   IFR   Intensive IFR   Very Intensive IFR
Visi :
Ceiling :
>= 8 km
>= 3000ft
5 to 8 km
1000 to 3000 ft
1500m to 5 km
500 to 1000 ft
800 to 1500m
200 to 500 ft
< 800m
< 200 ft
Symbols :   Thunderstorms  Fog  Heavy snow  Heavy precipitations  Wind > 20 kt






- Airport Elevation : 14 ft


KMCF - Mac Dill Air Force Base

CURRENT METAR :
  • 281055Z AUTO 00000KT 9SM FEW070 18/18 A2998 RMK AO2 SLP155 T01840181 FZRANO $

EXPIRED METARs :
  • 280955Z AUTO 00000KT 10SM BKN070 19/19 A2996 RMK AO2 SLP148 T01930186 FZRANO $
  • 280855Z AUTO 14003KT 10SM SCT075 20/19 A2996 RMK AO2 SLP148 T01950187 50000 FZRANO $

TAF TAF KMCF
Valid from the 28 at 09:00 until the 29 at 15:00 UTC


280900Z 2809/2915 VRB06KT 9999 FEW015 SCT030 BKN050 QNH2996INS
TEMPO 2810/2813 00000KT 0800 FG BKN004
BECMG 2813/2814 01006KT 9999 FEW020 SCT070 QNH2997INS TX26/2822Z TN17/2909Z
KZMA FIR / North America



MET'MAP, your aeronautical weather chart ! - Copyright ORBIFLY December 2007 - Disclaimer

ORBIFLY MET'MAP TEAM :

Programming & Development : Alexandra Zaïnal
Original concept : Baudouin d'Aumeries
Technical & hardware support : Manuel Goepfert
Assistance : Marc-Olivier Méhu




SOURCES & CREDITS :

   NOAA       Earth
Advisory